Time;durP1;ratioP1;P1;durP2;ratioP2;P2;SDS_P1;SDS_P2;PMS_P1;PMS_P2;Temp;Humidity;BMP_temperature;BMP_pressure;BME280_temperature;BME280_humidity;BME280_pressure;Samples;Min_cycle;Max_cycle;Signal;HPM_P1;HPM_P2
2023/07/09 00:00:49;;;;;;;7.05;5.03;;;24.40;99.90;;;;;;4984162;28;20567;-34
2023/07/09 00:03:15;;;;;;;7.55;5.07;;;24.40;99.90;;;;;;4983661;28;20137;-33
2023/07/09 00:05:42;;;;;;;9.82;5.70;;;24.30;99.90;;;;;;4978677;28;20050;-33
2023/07/09 00:08:26;;;;;;;8.38;5.40;;;24.20;99.90;;;;;;4962273;28;20141;-33
2023/07/09 00:10:53;;;;;;;8.27;5.25;;;24.20;99.90;;;;;;4966266;28;20053;-33
2023/07/09 00:13:18;;;;;;;9.70;5.30;;;24.10;99.90;;;;;;4980614;28;20058;-34
2023/07/09 00:15:44;;;;;;;9.20;5.78;;;24.10;99.90;;;;;;4965724;28;20408;-34
2023/07/09 00:18:10;;;;;;;7.05;4.70;;;24.00;99.90;;;;;;4962858;28;20469;-34
2023/07/09 00:20:35;;;;;;;9.23;5.35;;;24.00;99.90;;;;;;4966954;28;20050;-34
2023/07/09 00:23:04;;;;;;;7.38;5.18;;;23.90;99.90;;;;;;4965647;28;20400;-34
2023/07/09 00:25:30;;;;;;;14.80;5.82;;;23.90;99.90;;;;;;4975755;28;20053;-34
2023/07/09 00:27:56;;;;;;;8.30;5.63;;;23.70;99.90;;;;;;4967090;28;20532;-34
2023/07/09 00:30:23;;;;;;;7.15;5.35;;;23.70;99.90;;;;;;4982829;28;20197;-34
2023/07/09 00:32:53;;;;;;;8.30;5.35;;;23.70;99.90;;;;;;4983720;28;20467;-34
2023/07/09 00:35:19;;;;;;;8.30;5.63;;;23.60;99.90;;;;;;4983873;28;20078;-34
2023/07/09 00:37:45;;;;;;;8.25;5.35;;;23.50;99.90;;;;;;4981540;28;20073;-34
2023/07/09 00:40:18;;;;;;;7.85;5.65;;;23.50;99.90;;;;;;4964015;28;20051;-34
2023/07/09 00:42:48;;;;;;;8.40;5.35;;;23.50;99.90;;;;;;4963841;28;20050;-34
2023/07/09 00:45:24;;;;;;;9.43;5.18;;;23.40;99.90;;;;;;4966137;28;20058;-33
2023/07/09 00:47:52;;;;;;;9.25;4.93;;;23.30;99.90;;;;;;4952029;28;20146;-34
2023/07/09 00:50:33;;;;;;;8.75;5.22;;;23.30;99.90;;;;;;4958616;28;20047;-34
2023/07/09 00:53:07;;;;;;;7.72;5.28;;;23.30;99.90;;;;;;4979474;28;20492;-34
2023/07/09 00:55:37;;;;;;;6.63;4.72;;;23.20;99.90;;;;;;4985042;28;20160;-34
2023/07/09 00:58:08;;;;;;;10.35;5.47;;;23.20;99.90;;;;;;4976463;28;20058;-34
2023/07/09 01:00:48;;;;;;;7.57;4.88;;;23.10;99.90;;;;;;4968746;28;20065;-34
2023/07/09 01:03:25;;;;;;;11.77;5.65;;;23.10;99.90;;;;;;4967496;28;20292;-33
2023/07/09 01:05:55;;;;;;;9.85;5.68;;;23.00;99.90;;;;;;4964335;28;20054;-33
2023/07/09 01:08:21;;;;;;;10.43;5.65;;;23.00;99.90;;;;;;4971886;28;20050;-33
2023/07/09 01:10:47;;;;;;;9.82;5.88;;;23.00;99.90;;;;;;4961182;28;20101;-33
2023/07/09 01:13:14;;;;;;;7.05;5.47;;;22.90;99.90;;;;;;4968443;28;20623;-33
2023/07/09 01:15:40;;;;;;;7.30;4.68;;;22.90;99.90;;;;;;4967635;28;20065;-33
2023/07/09 01:18:07;;;;;;;7.25;4.95;;;22.80;99.90;;;;;;4963940;28;20180;-33
2023/07/09 01:20:33;;;;;;;10.32;5.53;;;22.80;99.90;;;;;;4964873;28;20046;-33
2023/07/09 01:23:00;;;;;;;8.30;5.43;;;22.90;99.90;;;;;;4975121;28;20061;-33
2023/07/09 01:25:28;;;;;;;8.35;5.07;;;22.90;99.90;;;;;;4987461;28;20050;-33
2023/07/09 01:27:54;;;;;;;8.52;5.70;;;22.90;99.90;;;;;;4983949;28;20110;-34
2023/07/09 01:30:25;;;;;;;6.97;4.97;;;23.00;99.90;;;;;;4965211;28;20489;-34
2023/07/09 01:32:55;;;;;;;11.98;5.10;;;23.00;99.90;;;;;;4971296;28;20062;-34
2023/07/09 01:35:21;;;;;;;8.10;5.38;;;23.00;99.90;;;;;;4964476;28;20054;-34
2023/07/09 01:37:47;;;;;;;7.22;5.22;;;22.90;99.90;;;;;;4963384;28;20085;-34
2023/07/09 01:40:19;;;;;;;8.55;5.78;;;22.90;99.90;;;;;;4964316;28;20503;-34
2023/07/09 01:42:45;;;;;;;6.57;5.10;;;22.90;99.90;;;;;;4966355;28;20059;-34
2023/07/09 01:45:12;;;;;;;7.72;4.97;;;22.90;99.90;;;;;;4982646;28;20329;-34
2023/07/09 01:47:38;;;;;;;7.68;5.18;;;22.90;99.90;;;;;;4972509;28;20557;-34
2023/07/09 01:50:06;;;;;;;11.98;6.10;;;22.90;99.90;;;;;;4962545;28;20057;-34
2023/07/09 01:52:33;;;;;;;9.00;5.32;;;22.90;99.90;;;;;;4971344;28;20531;-34
2023/07/09 01:54:58;;;;;;;10.13;6.15;;;22.80;99.90;;;;;;4965563;28;20051;-34
2023/07/09 01:57:37;;;;;;;9.20;5.30;;;22.80;99.90;;;;;;4970257;28;20146;-33
2023/07/09 02:00:15;;;;;;;9.55;5.72;;;22.80;99.90;;;;;;4962053;28;20412;-34
2023/07/09 02:02:42;;;;;;;9.75;6.25;;;22.80;99.90;;;;;;4979725;28;20508;-34
2023/07/09 02:05:09;;;;;;;9.55;5.85;;;22.70;99.90;;;;;;4978306;28;20465;-34
2023/07/09 02:07:35;;;;;;;9.73;5.88;;;22.70;99.90;;;;;;4982516;28;20050;-34
2023/07/09 02:10:00;;;;;;;7.53;4.90;;;22.70;99.90;;;;;;4972084;28;20446;-34
2023/07/09 02:12:26;;;;;;;9.32;6.00;;;22.70;99.90;;;;;;4965976;28;20054;-34
2023/07/09 02:14:52;;;;;;;9.30;6.13;;;22.60;99.90;;;;;;4966225;28;20061;-34
2023/07/09 02:17:18;;;;;;;8.65;5.47;;;22.60;99.90;;;;;;4964239;28;20328;-34
2023/07/09 02:19:44;;;;;;;8.23;5.72;;;22.60;99.90;;;;;;4962218;28;20059;-34
2023/07/09 02:22:11;;;;;;;8.45;5.90;;;22.60;99.90;;;;;;4965957;28;20047;-34
2023/07/09 02:24:37;;;;;;;9.20;5.68;;;22.50;99.90;;;;;;4963670;28;20571;-34
2023/07/09 02:27:05;;;;;;;9.30;5.28;;;22.50;99.90;;;;;;4962862;28;20043;-33
2023/07/09 02:29:31;;;;;;;7.63;5.40;;;22.40;99.90;;;;;;4960071;28;20554;-35
2023/07/09 02:31:58;;;;;;;6.65;5.18;;;22.40;99.90;;;;;;4965440;28;20116;-34
2023/07/09 02:34:28;;;;;;;7.93;5.70;;;22.40;99.90;;;;;;4966050;28;20046;-34
2023/07/09 02:36:56;;;;;;;8.63;5.18;;;22.40;99.90;;;;;;4963678;28;20059;-34
2023/07/09 02:39:23;;;;;;;10.65;5.40;;;22.30;99.90;;;;;;4962097;28;20047;-33
2023/07/09 02:41:49;;;;;;;9.63;6.18;;;22.30;99.90;;;;;;4971966;28;20046;-34
2023/07/09 02:44:16;;;;;;;12.20;6.00;;;22.30;99.90;;;;;;4965203;28;20047;-34
2023/07/09 02:46:41;;;;;;;8.00;5.43;;;22.30;99.90;;;;;;4974380;28;20042;-35
2023/07/09 02:49:11;;;;;;;10.30;6.10;;;22.30;99.90;;;;;;4962538;28;20469;-34
2023/07/09 02:51:37;;;;;;;9.25;6.35;;;22.20;99.90;;;;;;4972848;28;20062;-34
2023/07/09 02:54:03;;;;;;;8.07;5.75;;;22.20;99.90;;;;;;4971211;28;20516;-34
2023/07/09 02:56:29;;;;;;;10.57;5.93;;;22.10;99.90;;;;;;4977783;28;20054;-35
2023/07/09 02:58:56;;;;;;;8.75;6.00;;;22.10;99.90;;;;;;4981328;28;20118;-35
2023/07/09 03:01:27;;;;;;;10.20;6.05;;;22.10;99.90;;;;;;4964663;28;20047;-35
2023/07/09 03:03:54;;;;;;;9.88;6.18;;;22.10;99.90;;;;;;4944274;28;20074;-35
2023/07/09 03:06:21;;;;;;;12.68;5.90;;;22.10;99.90;;;;;;4976100;28;20116;-34
2023/07/09 03:08:47;;;;;;;8.40;6.35;;;22.00;99.90;;;;;;4960009;28;20043;-34
2023/07/09 03:11:15;;;;;;;9.20;6.55;;;22.00;99.90;;;;;;4958735;28;20129;-34
2023/07/09 03:13:41;;;;;;;11.15;5.82;;;22.00;99.90;;;;;;4966324;28;20046;-35
2023/07/09 03:16:06;;;;;;;7.13;5.55;;;22.00;99.90;;;;;;4969388;28;20523;-34
2023/07/09 03:18:32;;;;;;;8.63;6.15;;;22.00;99.90;;;;;;4975608;28;20506;-36
2023/07/09 03:20:58;;;;;;;9.13;5.97;;;22.00;99.90;;;;;;4965630;28;20043;-34
2023/07/09 03:23:24;;;;;;;9.25;6.43;;;21.90;99.90;;;;;;4967144;28;20053;-34
2023/07/09 03:25:50;;;;;;;8.02;5.60;;;21.90;99.90;;;;;;4962844;28;20055;-35
2023/07/09 03:28:16;;;;;;;8.95;6.22;;;21.90;99.90;;;;;;4957541;28;20397;-35
2023/07/09 03:30:43;;;;;;;10.25;6.60;;;21.90;99.90;;;;;;4982810;28;20477;-37
2023/07/09 03:33:10;;;;;;;11.80;6.60;;;21.90;99.90;;;;;;4982561;28;20046;-35
2023/07/09 03:35:38;;;;;;;8.13;5.47;;;21.90;99.90;;;;;;4963784;28;20043;-34
2023/07/09 03:38:04;;;;;;;8.45;6.00;;;21.90;99.90;;;;;;4967997;28;20132;-35
2023/07/09 03:40:30;;;;;;;9.35;6.13;;;21.90;99.90;;;;;;4953240;28;20057;-35
2023/07/09 03:42:56;;;;;;;9.77;5.55;;;21.90;99.90;;;;;;4963156;28;20133;-35
2023/07/09 03:45:22;;;;;;;9.43;5.97;;;21.90;99.90;;;;;;4966964;28;20046;-35
2023/07/09 03:47:48;;;;;;;8.48;5.25;;;22.00;99.90;;;;;;4983362;28;20065;-35
2023/07/09 03:50:14;;;;;;;8.90;5.72;;;22.00;99.90;;;;;;4969943;28;20392;-34
2023/07/09 03:52:39;;;;;;;8.68;6.13;;;21.90;99.90;;;;;;4962615;28;20062;-33
2023/07/09 03:55:05;;;;;;;9.95;5.93;;;21.90;99.90;;;;;;4966165;28;20068;-34
2023/07/09 03:57:33;;;;;;;11.25;5.85;;;21.90;99.90;;;;;;4967277;28;20090;-34
2023/07/09 03:59:58;;;;;;;8.48;5.97;;;21.90;99.90;;;;;;4946183;28;20058;-34
2023/07/09 04:02:24;;;;;;;8.98;6.05;;;21.80;99.90;;;;;;4964172;28;20055;-35
2023/07/09 04:04:50;;;;;;;8.27;5.90;;;21.80;99.90;;;;;;4971687;28;20062;-34
2023/07/09 04:07:16;;;;;;;10.73;5.80;;;21.80;99.90;;;;;;4964594;28;20059;-34
2023/07/09 04:09:42;;;;;;;10.25;6.32;;;21.80;99.90;;;;;;4964415;28;20051;-35
2023/07/09 04:12:09;;;;;;;7.10;5.50;;;21.80;99.90;;;;;;4963069;28;20050;-34
2023/07/09 04:14:35;;;;;;;9.48;6.47;;;21.80;99.90;;;;;;4961743;28;20051;-34
2023/07/09 04:17:02;;;;;;;9.00;5.68;;;21.70;99.90;;;;;;4962727;28;20063;-34
2023/07/09 04:19:27;;;;;;;8.13;6.05;;;21.80;99.90;;;;;;4964598;28;20039;-34
2023/07/09 04:21:53;;;;;;;9.43;5.97;;;21.80;99.90;;;;;;4960315;28;20047;-33
2023/07/09 04:24:20;;;;;;;7.95;6.03;;;21.80;99.90;;;;;;4965563;28;20055;-34
2023/07/09 04:26:46;;;;;;;8.98;6.25;;;21.80;99.90;;;;;;4963731;28;20408;-33
2023/07/09 04:29:12;;;;;;;8.63;6.30;;;21.80;99.90;;;;;;4967208;28;20094;-35
2023/07/09 04:31:38;;;;;;;9.43;6.00;;;21.80;99.90;;;;;;4965044;28;20057;-34
2023/07/09 04:34:04;;;;;;;8.02;5.88;;;21.80;99.90;;;;;;4966640;28;20046;-34
2023/07/09 04:36:31;;;;;;;14.80;7.28;;;21.80;99.90;;;;;;4962222;28;20058;-39
2023/07/09 04:38:57;;;;;;;8.07;5.93;;;21.80;99.90;;;;;;4965975;28;20481;-34
2023/07/09 04:41:23;;;;;;;10.32;6.30;;;21.90;99.90;;;;;;4967542;28;20051;-34
2023/07/09 04:43:48;;;;;;;8.75;5.82;;;21.90;99.90;;;;;;4976164;28;20042;-34
2023/07/09 04:46:14;;;;;;;8.90;5.72;;;21.90;99.90;;;;;;4969817;28;20042;-34
2023/07/09 04:48:40;;;;;;;13.52;6.38;;;21.90;99.90;;;;;;4970624;28;20517;-34
2023/07/09 04:51:06;;;;;;;11.90;6.10;;;22.00;99.90;;;;;;4966114;28;20078;-34
2023/07/09 04:53:32;;;;;;;10.40;6.03;;;22.00;99.90;;;;;;4963182;28;20378;-33
2023/07/09 04:55:58;;;;;;;9.40;6.40;;;22.00;99.90;;;;;;4964362;28;20516;-34
2023/07/09 04:58:23;;;;;;;10.27;5.97;;;22.00;99.90;;;;;;4966660;28;20158;-35
2023/07/09 05:00:50;;;;;;;6.93;5.10;;;22.10;99.90;;;;;;4961517;28;20050;-35
2023/07/09 05:03:18;;;;;;;7.97;5.68;;;22.10;99.90;;;;;;4961678;28;20105;-35
2023/07/09 05:05:47;;;;;;;10.43;6.68;;;22.10;99.90;;;;;;4965026;28;20083;-35
2023/07/09 05:08:14;;;;;;;8.60;6.28;;;22.10;99.90;;;;;;4971084;28;20077;-35
2023/07/09 05:10:47;;;;;;;8.25;6.05;;;22.20;99.90;;;;;;4980984;28;20054;-34
2023/07/09 05:13:13;;;;;;;9.18;6.38;;;22.10;99.90;;;;;;4967431;28;20059;-35
2023/07/09 05:15:45;;;;;;;7.75;5.60;;;22.20;99.90;;;;;;4965267;28;20051;-34
2023/07/09 05:18:15;;;;;;;10.25;6.32;;;22.20;99.90;;;;;;4972715;28;20078;-35
2023/07/09 05:20:41;;;;;;;8.25;5.85;;;22.20;99.90;;;;;;4965897;28;20505;-34
2023/07/09 05:23:08;;;;;;;10.00;5.63;;;22.20;99.90;;;;;;4966231;28;20055;-34
2023/07/09 05:25:34;;;;;;;9.75;6.20;;;22.20;99.90;;;;;;4967626;28;20484;-35
2023/07/09 05:28:00;;;;;;;7.80;5.57;;;22.20;99.90;;;;;;4966117;28;20054;-35
2023/07/09 05:30:26;;;;;;;8.43;5.90;;;22.20;99.90;;;;;;4968465;28;20061;-34
2023/07/09 05:32:53;;;;;;;9.07;5.53;;;22.30;99.90;;;;;;4966456;28;20047;-34
2023/07/09 05:35:19;;;;;;;11.30;6.72;;;22.30;99.90;;;;;;4984550;28;20057;-34
2023/07/09 05:37:45;;;;;;;8.70;6.47;;;22.30;99.90;;;;;;4972831;28;20110;-34
2023/07/09 05:40:11;;;;;;;10.90;7.13;;;22.40;99.90;;;;;;4968904;28;20058;-34
2023/07/09 05:42:37;;;;;;;10.35;6.55;;;22.40;99.90;;;;;;4987361;28;20054;-34
2023/07/09 05:45:03;;;;;;;9.30;6.05;;;22.50;99.90;;;;;;4985998;28;20458;-35
2023/07/09 05:47:29;;;;;;;10.48;7.13;;;22.60;99.90;;;;;;4988275;28;20058;-35
2023/07/09 05:49:54;;;;;;;10.30;6.70;;;22.70;99.90;;;;;;4984735;28;20534;-34
2023/07/09 05:52:22;;;;;;;9.52;6.53;;;22.70;99.90;;;;;;4984785;28;20074;-36
2023/07/09 05:54:50;;;;;;;13.18;7.93;;;22.80;99.90;;;;;;4978563;28;20080;-34
2023/07/09 05:57:16;;;;;;;10.40;6.85;;;22.80;99.90;;;;;;4963001;28;20069;-35
2023/07/09 05:59:42;;;;;;;10.85;7.18;;;22.70;99.90;;;;;;4978998;28;20397;-34
2023/07/09 06:02:12;;;;;;;15.73;8.02;;;22.80;99.90;;;;;;4967821;28;20081;-34
2023/07/09 06:04:38;;;;;;;10.93;7.45;;;22.80;99.90;;;;;;4947046;28;20046;-35
2023/07/09 06:07:04;;;;;;;9.77;6.93;;;22.90;99.90;;;;;;4962850;28;20051;-35
2023/07/09 06:09:31;;;;;;;9.50;6.38;;;23.00;99.90;;;;;;4965804;28;20523;-36
2023/07/09 06:11:57;;;;;;;12.30;8.07;;;23.10;99.90;;;;;;4974711;28;20043;-35
2023/07/09 06:14:25;;;;;;;11.90;7.50;;;23.10;99.90;;;;;;4968388;28;20783;-35
2023/07/09 06:16:51;;;;;;;12.98;7.55;;;23.20;99.90;;;;;;4970152;28;20043;-35
2023/07/09 06:19:16;;;;;;;9.40;7.65;;;23.20;99.90;;;;;;4967540;28;20100;-35
2023/07/09 06:21:42;;;;;;;10.40;7.38;;;23.30;99.90;;;;;;4964241;28;20417;-34
2023/07/09 06:24:08;;;;;;;10.65;7.82;;;23.40;99.90;;;;;;4963318;28;20054;-34
2023/07/09 06:26:34;;;;;;;9.57;6.93;;;23.50;99.90;;;;;;4966217;28;20065;-35
2023/07/09 06:29:00;;;;;;;12.10;7.93;;;23.50;99.90;;;;;;4976943;28;20053;-35
2023/07/09 06:31:26;;;;;;;10.88;8.30;;;23.70;99.90;;;;;;4965238;28;20512;-34
2023/07/09 06:33:52;;;;;;;10.25;7.45;;;23.80;99.90;;;;;;4965674;28;20448;-34
2023/07/09 06:36:19;;;;;;;11.98;7.95;;;23.90;99.90;;;;;;4969183;28;20481;-35
2023/07/09 06:38:45;;;;;;;10.98;7.70;;;23.90;99.90;;;;;;4964365;28;20051;-35
2023/07/09 06:41:12;;;;;;;9.70;7.68;;;24.00;99.90;;;;;;4962578;28;20067;-34
2023/07/09 06:43:38;;;;;;;12.07;7.05;;;24.10;99.90;;;;;;4962876;28;20057;-34
2023/07/09 06:46:06;;;;;;;10.65;7.55;;;24.20;99.90;;;;;;4964393;28;20519;-34
2023/07/09 06:48:32;;;;;;;11.52;7.03;;;24.20;99.90;;;;;;4963353;28;20055;-34
2023/07/09 06:50:59;;;;;;;10.20;7.28;;;24.40;99.90;;;;;;4979974;28;20101;-35
2023/07/09 06:53:27;;;;;;;11.38;7.90;;;24.50;99.90;;;;;;4983374;28;20062;-35
2023/07/09 06:55:55;;;;;;;10.75;7.47;;;24.60;99.90;;;;;;4978168;28;20046;-35
2023/07/09 06:58:22;;;;;;;11.00;7.80;;;24.70;99.90;;;;;;4966198;28;20460;-34
2023/07/09 07:00:51;;;;;;;11.50;7.57;;;24.90;99.90;;;;;;4963450;28;20074;-35
2023/07/09 07:03:18;;;;;;;14.50;8.75;;;24.90;99.90;;;;;;4960972;28;20089;-34
2023/07/09 07:05:45;;;;;;;13.57;7.63;;;25.00;99.90;;;;;;4963041;28;20157;-35
2023/07/09 07:08:12;;;;;;;10.95;7.57;;;25.00;99.90;;;;;;4971020;28;20074;-35
2023/07/09 07:10:38;;;;;;;11.63;7.93;;;25.10;99.90;;;;;;4979150;28;20417;-35
2023/07/09 07:13:04;;;;;;;9.38;7.20;;;25.20;99.90;;;;;;4987322;28;20153;-34
2023/07/09 07:15:29;;;;;;;9.50;7.75;;;25.30;99.90;;;;;;4966551;28;20059;-35
2023/07/09 07:17:55;;;;;;;8.27;6.32;;;25.30;99.90;;;;;;4961624;28;20094;-35
2023/07/09 07:20:21;;;;;;;10.90;7.68;;;25.50;99.90;;;;;;4942543;28;20136;-35
2023/07/09 07:22:46;;;;;;;10.65;7.82;;;25.60;99.90;;;;;;4970371;28;20058;-35
2023/07/09 07:25:12;;;;;;;10.13;7.95;;;25.70;99.90;;;;;;4962829;28;20058;-34
2023/07/09 07:27:38;;;;;;;10.25;6.72;;;25.80;99.90;;;;;;4962498;28;20163;-35
2023/07/09 07:30:08;;;;;;;10.23;6.55;;;25.90;99.90;;;;;;4971654;28;20062;-35
2023/07/09 07:32:35;;;;;;;13.48;9.30;;;26.00;99.90;;;;;;4969644;28;20063;-35
2023/07/09 07:35:01;;;;;;;9.13;7.22;;;26.20;99.90;;;;;;4964021;28;20050;-34
2023/07/09 07:37:27;;;;;;;9.73;6.65;;;26.20;99.90;;;;;;4967013;28;20065;-35
2023/07/09 07:39:53;;;;;;;10.02;7.75;;;26.20;99.90;;;;;;4964980;28;20409;-36
2023/07/09 07:42:19;;;;;;;9.13;6.63;;;26.30;99.90;;;;;;4954471;28;20497;-35
2023/07/09 07:44:45;;;;;;;10.27;6.43;;;26.30;99.90;;;;;;4965062;28;20119;-34
2023/07/09 07:47:11;;;;;;;9.27;5.80;;;26.50;99.90;;;;;;4961314;28;20497;-35
2023/07/09 07:49:38;;;;;;;10.15;6.45;;;26.60;99.90;;;;;;4966122;28;20058;-36
2023/07/09 07:52:04;;;;;;;10.40;6.32;;;26.80;99.90;;;;;;4977127;28;20137;-34
2023/07/09 07:54:31;;;;;;;10.52;6.10;;;26.90;99.90;;;;;;4980673;28;20076;-35
2023/07/09 07:56:58;;;;;;;10.10;5.30;;;26.90;99.90;;;;;;4964267;28;20059;-35
2023/07/09 07:59:24;;;;;;;8.77;5.90;;;27.00;99.90;;;;;;4959661;28;20066;-36
2023/07/09 08:01:49;;;;;;;6.68;5.10;;;27.10;99.90;;;;;;4962067;28;20142;-37
2023/07/09 08:04:15;;;;;;;5.88;4.85;;;27.20;99.90;;;;;;4949233;28;20184;-35
2023/07/09 08:06:41;;;;;;;8.10;6.03;;;27.20;99.90;;;;;;4967140;28;20055;-35
2023/07/09 08:09:07;;;;;;;8.18;6.05;;;27.40;99.90;;;;;;4985002;28;20077;-34
2023/07/09 08:11:34;;;;;;;9.85;7.13;;;27.60;99.90;;;;;;4979354;28;20074;-35
2023/07/09 08:14:00;;;;;;;8.15;5.68;;;27.70;99.90;;;;;;4960503;28;20130;-35
2023/07/09 08:16:26;;;;;;;8.40;6.10;;;27.80;99.90;;;;;;4956071;28;20224;-36
2023/07/09 08:18:52;;;;;;;9.50;5.50;;;27.90;99.90;;;;;;4962514;28;20134;-37
2023/07/09 08:21:18;;;;;;;8.15;5.75;;;28.00;99.90;;;;;;4959795;28;20166;-34
2023/07/09 08:23:45;;;;;;;12.13;7.20;;;28.10;99.90;;;;;;4961244;28;20500;-34
2023/07/09 08:26:11;;;;;;;10.27;7.00;;;28.20;99.90;;;;;;4962594;28;20039;-34
2023/07/09 08:28:37;;;;;;;9.77;6.60;;;28.20;99.90;;;;;;4963167;28;20050;-34
2023/07/09 08:31:03;;;;;;;8.18;5.43;;;28.20;99.90;;;;;;4965322;28;20098;-35
2023/07/09 08:33:30;;;;;;;9.23;6.65;;;28.40;99.90;;;;;;4956804;28;20485;-34
2023/07/09 08:35:56;;;;;;;11.23;6.28;;;28.50;99.90;;;;;;4984511;28;20070;-44
2023/07/09 08:38:23;;;;;;;9.25;6.28;;;28.60;99.90;;;;;;4973041;28;20062;-35
2023/07/09 08:40:59;;;;;;;10.25;6.57;;;28.60;99.90;;;;;;4962022;28;20050;-35
2023/07/09 08:43:31;;;;;;;8.57;6.35;;;28.70;99.90;;;;;;4983325;28;20054;-35
2023/07/09 08:46:25;;;;;;;7.55;5.93;;;28.70;99.90;;;;;;4982942;28;20066;-35
2023/07/09 08:48:54;;;;;;;8.75;5.88;;;28.80;99.90;;;;;;4964080;28;20059;-35
2023/07/09 08:51:40;;;;;;;12.20;7.30;;;28.80;99.90;;;;;;4979177;28;20058;-34
2023/07/09 08:54:21;;;;;;;9.27;6.28;;;28.70;99.90;;;;;;4984013;28;20100;-35
2023/07/09 08:56:46;;;;;;;12.48;6.18;;;28.80;99.90;;;;;;4985184;28;20050;-34
2023/07/09 08:59:15;;;;;;;10.10;6.20;;;28.90;99.90;;;;;;4981211;28;20050;-35
2023/07/09 09:01:51;;;;;;;9.95;6.55;;;28.90;99.90;;;;;;4985241;28;20104;-34
2023/07/09 09:04:24;;;;;;;9.98;6.35;;;28.90;99.90;;;;;;4976603;28;20643;-34
2023/07/09 09:07:31;;;;;;;8.88;6.18;;;29.00;99.90;;;;;;4960607;28;20066;-35
2023/07/09 09:10:01;;;;;;;11.75;5.70;;;29.00;99.90;;;;;;4975497;28;20341;-35
2023/07/09 09:12:38;;;;;;;11.23;6.88;;;29.10;99.90;;;;;;4962487;28;20510;-34
2023/07/09 09:15:16;;;;;;;9.40;6.18;;;29.20;99.90;;;;;;4966037;28;20042;-39
2023/07/09 09:17:42;;;;;;;9.68;6.85;;;29.30;99.90;;;;;;4962006;28;20054;-35
2023/07/09 09:20:17;;;;;;;8.63;7.05;;;29.40;99.90;;;;;;4961584;28;20046;-34
2023/07/09 09:22:54;;;;;;;11.93;6.13;;;29.50;99.90;;;;;;4962188;28;20050;-34
2023/07/09 09:25:31;;;;;;;9.38;6.35;;;29.60;99.90;;;;;;4964520;28;20042;-34
2023/07/09 09:27:59;;;;;;;10.38;6.35;;;29.70;99.90;;;;;;4976768;28;20111;-39
2023/07/09 09:30:25;;;;;;;9.32;5.93;;;29.70;99.90;;;;;;4965408;28;21195;-33
2023/07/09 09:32:57;;;;;;;8.43;5.85;;;29.80;99.90;;;;;;4973397;28;20054;-35
2023/07/09 09:35:35;;;;;;;11.10;5.57;;;29.80;99.90;;;;;;4970719;28;20562;-33
2023/07/09 09:38:02;;;;;;;6.80;5.35;;;29.90;99.90;;;;;;4965479;28;20054;-33
2023/07/09 09:40:33;;;;;;;10.55;6.97;;;30.00;99.90;;;;;;4981542;28;20511;-32
2023/07/09 09:43:00;;;;;;;9.60;5.90;;;30.20;99.90;;;;;;4982186;28;20484;-35
2023/07/09 09:45:35;;;;;;;9.98;5.78;;;30.10;99.90;;;;;;4964506;28;20050;-33
2023/07/09 09:48:09;;;;;;;7.78;5.45;;;30.30;99.90;;;;;;4963659;28;20118;-33
2023/07/09 09:50:35;;;;;;;11.13;6.32;;;30.30;99.90;;;;;;4971256;28;20042;-32
2023/07/09 09:53:01;;;;;;;7.03;5.20;;;30.40;99.90;;;;;;4944931;28;20429;-33
2023/07/09 09:55:32;;;;;;;9.00;5.88;;;30.50;99.90;;;;;;4979850;28;20149;-33
2023/07/09 09:57:58;;;;;;;7.03;5.25;;;30.60;99.90;;;;;;4969236;28;20104;-34
2023/07/09 10:00:27;;;;;;;7.15;5.50;;;30.70;99.90;;;;;;4966871;28;20057;-34
2023/07/09 10:03:01;;;;;;;8.48;5.65;;;30.80;99.90;;;;;;4953582;28;20046;-35
2023/07/09 10:05:34;;;;;;;7.20;5.10;;;30.80;99.90;;;;;;4980159;28;20515;-34
2023/07/09 10:08:23;;;;;;;7.13;4.65;;;30.90;99.90;;;;;;4972490;28;20061;-34
2023/07/09 10:10:51;;;;;;;10.02;5.72;;;30.90;99.90;;;;;;4959657;28;20058;-35
2023/07/09 10:13:34;;;;;;;8.43;6.00;;;31.10;99.90;;;;;;4962452;28;20398;-35
2023/07/09 10:16:03;;;;;;;13.20;6.20;;;31.20;99.90;;;;;;4971875;28;20531;-35
2023/07/09 10:18:46;;;;;;;8.32;4.82;;;31.20;99.90;;;;;;4966956;28;20058;-35
2023/07/09 10:21:40;;;;;;;9.15;5.60;;;31.30;99.90;;;;;;4978514;28;20452;-35
2023/07/09 10:24:26;;;;;;;8.90;6.03;;;31.40;99.90;;;;;;4979101;28;20117;-35
2023/07/09 10:27:06;;;;;;;8.32;6.82;;;31.50;99.90;;;;;;4979724;28;20174;-34
2023/07/09 10:29:44;;;;;;;12.18;6.68;;;31.50;99.90;;;;;;4969060;28;20149;-34
2023/07/09 10:32:36;;;;;;;6.35;4.53;;;31.60;99.90;;;;;;4952955;28;21492;-34
2023/07/09 10:35:09;;;;;;;7.68;5.43;;;31.60;99.90;;;;;;4961354;28;20386;-34
2023/07/09 10:37:41;;;;;;;11.77;6.60;;;31.60;99.90;;;;;;4963542;28;20533;-34
2023/07/09 10:40:08;;;;;;;;;;;31.70;99.90;;;;;;4977512;28;20058;-34
2023/07/09 10:42:54;;;;;;;10.13;5.05;;;31.70;99.90;;;;;;4960652;28;20368;-34
2023/07/09 10:45:26;;;;;;;7.55;5.40;;;31.90;99.90;;;;;;4960242;28;20072;-34
2023/07/09 10:47:59;;;;;;;9.18;5.55;;;32.00;99.90;;;;;;4960297;28;20074;-35
2023/07/09 10:50:24;;;;;;;7.68;5.72;;;32.00;99.90;;;;;;4974867;28;20586;-34
2023/07/09 10:52:54;;;;;;;8.57;6.43;;;32.10;99.90;;;;;;4976281;28;20050;-34
2023/07/09 10:55:28;;;;;;;10.35;6.57;;;32.10;99.90;;;;;;4979581;28;20050;-34
2023/07/09 10:58:02;;;;;;;9.15;6.50;;;32.20;99.90;;;;;;4961381;28;20517;-35
2023/07/09 11:00:36;;;;;;;8.20;5.55;;;32.30;99.90;;;;;;4979591;28;20049;-35
2023/07/09 11:03:14;;;;;;;6.22;4.35;;;32.30;99.90;;;;;;4983034;28;20112;-35
2023/07/09 11:05:40;;;;;;;9.48;4.38;;;32.40;99.90;;;;;;4984046;28;20047;-35
2023/07/09 11:08:14;;;;;;;6.60;3.92;;;32.60;99.90;;;;;;4962459;28;20109;-35
2023/07/09 11:10:52;;;;;;;5.18;3.30;;;32.80;99.90;;;;;;4964030;28;20527;-37
2023/07/09 11:13:25;;;;;;;10.02;4.45;;;33.00;99.90;;;;;;4959552;28;20613;-33
2023/07/09 11:15:56;;;;;;;7.47;4.32;;;33.10;99.90;;;;;;4960976;28;20484;-36
2023/07/09 11:18:24;;;;;;;7.07;4.10;;;33.10;99.90;;;;;;4962214;28;20210;-38
2023/07/09 11:21:04;;;;;;;6.72;4.03;;;33.10;99.90;;;;;;4977460;28;20511;-34
2023/07/09 11:23:53;;;;;;;5.47;4.03;;;33.30;99.90;;;;;;4963296;28;20043;-34
2023/07/09 11:26:33;;;;;;;7.25;4.15;;;33.50;99.90;;;;;;4958408;28;20058;-34
2023/07/09 11:29:02;;;;;;;12.05;4.22;;;33.60;99.90;;;;;;4960272;28;20069;-34
2023/07/09 11:31:38;;;;;;;6.55;4.25;;;33.60;99.90;;;;;;4971045;28;20507;-34
2023/07/09 11:34:12;;;;;;;6.00;4.13;;;33.80;99.90;;;;;;4978375;28;20113;-35
2023/07/09 11:36:58;;;;;;;10.80;4.60;;;33.90;99.90;;;;;;4958139;28;20423;-33
2023/07/09 11:39:38;;;;;;;6.78;4.13;;;33.90;99.90;;;;;;4967451;28;20050;-33
2023/07/09 11:42:22;;;;;;;5.93;4.53;;;34.10;99.90;;;;;;4980263;28;20057;-34
2023/07/09 11:44:57;;;;;;;9.50;4.13;;;34.10;99.90;;;;;;4972536;28;20082;-36
2023/07/09 11:47:28;;;;;;;8.05;4.03;;;34.20;99.90;;;;;;4970977;28;20054;-34
2023/07/09 11:49:58;;;;;;;7.65;3.45;;;34.30;99.90;;;;;;4958294;28;20066;-34
2023/07/09 11:52:53;;;;;;;5.88;3.97;;;34.40;99.90;;;;;;4958642;28;20046;-35
2023/07/09 11:55:42;;;;;;;7.70;4.43;;;34.50;99.90;;;;;;4979263;28;20078;-35
2023/07/09 11:58:17;;;;;;;8.65;4.38;;;34.50;99.90;;;;;;4958975;28;20180;-35
2023/07/09 12:00:51;;;;;;;6.47;3.92;;;34.70;99.90;;;;;;4957690;28;20051;-34
2023/07/09 12:03:22;;;;;;;8.85;3.78;;;34.80;99.90;;;;;;4968599;28;20121;-34
2023/07/09 12:06:04;;;;;;;5.65;3.78;;;34.90;99.90;;;;;;4969401;28;20050;-36
2023/07/09 12:08:36;;;;;;;5.68;3.65;;;35.00;99.90;;;;;;4968801;28;20178;-34
2023/07/09 12:11:02;;;;;;;6.90;3.72;;;35.10;99.90;;;;;;4976429;28;20046;-35
2023/07/09 12:13:28;;;;;;;6.40;4.40;;;35.20;99.90;;;;;;4963052;28;20058;-34
2023/07/09 12:15:54;;;;;;;8.52;4.30;;;35.30;99.90;;;;;;4951434;28;20055;-35
2023/07/09 12:18:19;;;;;;;5.80;3.95;;;35.30;99.90;;;;;;4965676;28;20118;-34
2023/07/09 12:20:50;;;;;;;5.90;4.05;;;35.30;99.90;;;;;;4971377;28;20055;-34
2023/07/09 12:23:27;;;;;;;5.60;4.03;;;35.30;99.90;;;;;;4974642;28;20153;-34
2023/07/09 12:25:53;;;;;;;7.25;3.85;;;35.50;99.90;;;;;;4984170;28;20050;-34
2023/07/09 12:28:21;;;;;;;9.30;4.22;;;35.70;99.90;;;;;;4982802;28;20496;-35
2023/07/09 12:30:48;;;;;;;5.13;3.45;;;35.80;99.90;;;;;;4976020;28;20051;-35
2023/07/09 12:33:25;;;;;;;5.40;3.80;;;35.90;99.90;;;;;;4966840;28;20105;-35
2023/07/09 12:36:05;;;;;;;4.65;3.63;;;36.00;99.90;;;;;;4966301;28;20506;-35
2023/07/09 12:38:44;;;;;;;4.78;3.50;;;36.10;99.90;;;;;;4968605;28;20493;-33
2023/07/09 12:41:22;;;;;;;7.03;3.65;;;36.20;99.90;;;;;;4952929;28;20050;-34
2023/07/09 12:43:49;;;;;;;8.63;3.80;;;36.10;99.90;;;;;;4972565;28;20141;-34
2023/07/09 12:46:15;;;;;;;5.97;3.72;;;36.10;99.90;;;;;;4976376;28;20058;-35
2023/07/09 12:48:41;;;;;;;5.30;3.58;;;36.00;99.90;;;;;;4989769;28;20529;-35
2023/07/09 12:51:08;;;;;;;6.22;3.80;;;35.80;99.90;;;;;;4988486;28;20050;-35
2023/07/09 12:53:35;;;;;;;7.90;3.45;;;35.70;99.90;;;;;;4978348;28;20078;-35